createdAt,value
2018-07-26T00:00:29.548Z,955.1
2018-07-26T00:01:29.513Z,955.41
2018-07-26T00:02:29.549Z,955.27
2018-07-26T00:03:29.524Z,955.27
2018-07-26T00:04:29.548Z,955.36
2018-07-26T00:05:29.552Z,955.15
2018-07-26T00:06:29.537Z,955.6
2018-07-26T00:07:29.569Z,956.01
2018-07-26T00:08:29.535Z,955.28
2018-07-26T00:09:29.555Z,955.49
2018-07-26T00:10:29.567Z,955.7
2018-07-26T00:11:29.592Z,955.81
2018-07-26T00:12:29.585Z,955.65
2018-07-26T00:13:29.540Z,955.94
2018-07-26T00:14:29.550Z,955.53
2018-07-26T00:15:29.550Z,955.54
2018-07-26T00:16:29.565Z,955.52
2018-07-26T00:17:29.585Z,955.93
2018-07-26T00:18:29.551Z,955.53
2018-07-26T00:19:29.568Z,955.52
2018-07-26T00:20:29.571Z,955.73
2018-07-26T00:21:29.589Z,955.95
2018-07-26T00:22:29.566Z,955.64
2018-07-26T00:23:29.589Z,955.64
2018-07-26T00:24:29.591Z,955.93
2018-07-26T00:25:29.557Z,956.03
2018-07-26T00:26:29.564Z,955.7
2018-07-26T00:27:29.636Z,956.03
2018-07-26T00:28:29.566Z,955.9
2018-07-26T00:29:29.572Z,956.02
2018-07-26T00:30:29.643Z,955.58
2018-07-26T00:31:29.589Z,956.2
2018-07-26T00:32:29.576Z,955.89
2018-07-26T00:33:29.584Z,955.77
2018-07-26T00:34:29.591Z,955.88
2018-07-26T00:35:29.570Z,956.07
2018-07-26T00:36:29.631Z,956.17
2018-07-26T00:37:29.597Z,956.3
2018-07-26T00:38:29.622Z,956.43
2018-07-26T00:39:29.598Z,956.1
2018-07-26T00:40:29.644Z,956.32
2018-07-26T00:41:29.670Z,956.13
2018-07-26T00:46:04.329Z,956.64
2018-07-26T00:47:04.307Z,956.51
2018-07-26T00:48:04.262Z,956.52
2018-07-26T00:49:04.277Z,956.53
2018-07-26T00:50:04.264Z,956.77
2018-07-26T00:51:04.326Z,956.36
2018-07-26T00:52:04.268Z,956.57
2018-07-26T00:53:04.304Z,956.68
2018-07-26T00:54:04.277Z,956.82
2018-07-26T00:55:04.296Z,956.64
2018-07-26T00:56:04.288Z,956.73
2018-07-26T00:57:04.297Z,956.67
2018-07-26T00:58:04.272Z,956.71
2018-07-26T00:59:04.288Z,956.7
2018-07-26T01:00:04.312Z,956.92
2018-07-26T01:01:04.439Z,956.9
2018-07-26T01:02:04.286Z,956.9
2018-07-26T01:03:04.277Z,956.4
2018-07-26T01:04:04.303Z,956.73
2018-07-26T01:05:04.351Z,956.83
2018-07-26T01:06:04.338Z,956.73
2018-07-26T01:07:04.357Z,956.57
2018-07-26T01:08:04.328Z,956.67
2018-07-26T01:09:04.337Z,956.78
2018-07-26T01:10:04.319Z,956.88
2018-07-26T01:11:04.298Z,957.19
2018-07-26T01:12:04.324Z,956.77
2018-07-26T01:13:04.318Z,956.86
2018-07-26T01:14:04.315Z,956.66
2018-07-26T01:15:04.335Z,956.99
2018-07-26T01:16:04.325Z,956.86
2018-07-26T01:17:04.337Z,956.76
2018-07-26T01:18:04.326Z,956.65
2018-07-26T01:19:04.346Z,957.17
2018-07-26T01:20:04.316Z,957.02
2018-07-26T01:21:04.362Z,957.06
2018-07-26T01:22:04.356Z,957.09
2018-07-26T01:23:04.347Z,956.87
2018-07-26T01:24:04.327Z,957.09
2018-07-26T01:25:04.371Z,957.19
2018-07-26T01:26:04.361Z,957.22
2018-07-26T01:27:04.321Z,957.52
2018-07-26T01:28:04.364Z,957.33
2018-07-26T01:29:04.352Z,957.05
2018-07-26T01:30:04.359Z,957.34
2018-07-26T01:31:04.365Z,957.25
2018-07-26T01:32:04.355Z,957.65
2018-07-26T01:33:04.323Z,957.04
2018-07-26T01:34:04.367Z,957.23
2018-07-26T01:35:04.364Z,957.34
2018-07-26T01:36:04.410Z,957.04
2018-07-26T01:37:04.349Z,957.27
2018-07-26T01:38:04.362Z,957.53
2018-07-26T01:39:04.378Z,957.45
2018-07-26T01:40:04.400Z,957.35
2018-07-26T01:41:04.353Z,957.51
2018-07-26T01:42:04.399Z,957.42
2018-07-26T01:43:04.387Z,957.49
2018-07-26T01:44:04.394Z,957.52
2018-07-26T01:45:04.390Z,957.82
2018-07-26T01:46:04.365Z,957.64
2018-07-26T01:47:04.380Z,957.64
2018-07-26T01:48:04.404Z,957.41
2018-07-26T01:49:04.390Z,957.59
2018-07-26T01:50:04.398Z,957.63
2018-07-26T01:51:04.405Z,958.03
2018-07-26T01:52:04.382Z,957.53
2018-07-26T01:53:04.388Z,957.49
2018-07-26T01:54:04.394Z,957.5
2018-07-26T01:55:04.415Z,957.49
2018-07-26T01:56:04.412Z,957.58
2018-07-26T01:57:04.419Z,957.81
2018-07-26T01:58:04.415Z,957.56
2018-07-26T01:59:04.430Z,957.57
2018-07-26T02:00:04.409Z,957.89
2018-07-26T02:01:04.419Z,957.79
2018-07-26T02:02:04.410Z,957.99
2018-07-26T02:03:04.450Z,957.26
2018-07-26T02:04:04.427Z,957.8
2018-07-26T02:05:04.411Z,957.48
2018-07-26T02:06:04.434Z,957.81
2018-07-26T02:07:04.445Z,957.88
2018-07-26T02:08:04.449Z,957.76
2018-07-26T02:09:04.455Z,957.74
2018-07-26T02:10:04.439Z,958.14
2018-07-26T02:11:04.413Z,957.98
2018-07-26T02:12:04.420Z,957.79
2018-07-26T02:13:04.438Z,957.77
2018-07-26T02:14:04.434Z,957.6
2018-07-26T02:15:04.430Z,957.79
2018-07-26T02:16:04.435Z,957.7
2018-07-26T02:17:04.459Z,957.74
2018-07-26T02:18:04.422Z,957.84
2018-07-26T02:19:04.457Z,957.95
2018-07-26T02:20:04.464Z,958.15
2018-07-26T02:21:04.432Z,957.91
2018-07-26T02:22:04.452Z,958.05
2018-07-26T02:23:04.482Z,958.26
2018-07-26T02:24:04.510Z,957.84
2018-07-26T02:25:04.458Z,958.27
2018-07-26T02:26:04.464Z,957.95
2018-07-26T02:27:04.514Z,958.24
2018-07-26T02:28:04.495Z,958.06
2018-07-26T02:29:04.457Z,958.35
2018-07-26T02:30:04.448Z,958.19
2018-07-26T02:31:04.538Z,958.04
2018-07-26T02:32:04.478Z,958.24
2018-07-26T02:33:04.491Z,958.01
2018-07-26T02:34:04.450Z,958.47
2018-07-26T02:35:04.498Z,958.23
2018-07-26T02:36:04.480Z,957.96
2018-07-26T02:37:04.484Z,958.04
2018-07-26T02:38:04.450Z,958.3
2018-07-26T02:39:04.487Z,958.46
2018-07-26T02:40:04.501Z,958.29
2018-07-26T02:41:04.498Z,958.4
2018-07-26T02:42:04.492Z,958.43
2018-07-26T02:43:04.489Z,958.59
2018-07-26T02:44:04.519Z,958.39
2018-07-26T02:45:04.529Z,958.5
2018-07-26T02:46:04.489Z,958.52
2018-07-26T02:47:04.514Z,958.75
2018-07-26T02:48:04.505Z,958.75
2018-07-26T02:49:04.509Z,958.67
2018-07-26T02:50:04.518Z,958.74
2018-07-26T02:55:22.676Z,958.57
2018-07-26T02:55:35.547Z,958.7
2018-07-26T02:56:35.560Z,958.7
2018-07-26T02:57:35.524Z,958.62
2018-07-26T02:58:35.555Z,959.14
2018-07-26T02:59:35.537Z,958.94
2018-07-26T03:00:35.527Z,958.86
2018-07-26T03:01:35.580Z,958.88
2018-07-26T03:02:35.541Z,958.84
2018-07-26T03:03:35.573Z,958.83
2018-07-26T03:04:35.552Z,959.17
2018-07-26T03:05:35.559Z,958.76
2018-07-26T03:06:35.588Z,959.06
2018-07-26T03:07:35.552Z,959.06
2018-07-26T03:08:35.519Z,958.98
2018-07-26T03:09:35.528Z,959.03
2018-07-26T03:10:35.539Z,958.89
2018-07-26T03:11:35.602Z,959
2018-07-26T03:12:35.570Z,959.19
2018-07-26T03:13:35.577Z,959.1
2018-07-26T03:14:35.586Z,959.11
2018-07-26T03:15:35.541Z,959.02
2018-07-26T03:16:35.559Z,959.11
2018-07-26T03:17:35.571Z,959.1
2018-07-26T03:18:35.549Z,959.35
2018-07-26T03:19:35.548Z,959.35
2018-07-26T03:20:35.553Z,959.23
2018-07-26T03:21:35.579Z,958.9
2018-07-26T03:22:35.586Z,959.11
2018-07-26T03:23:35.554Z,959.58
2018-07-26T03:24:35.560Z,959.22
2018-07-26T03:25:35.587Z,959.52
2018-07-26T03:26:35.587Z,959.23
2018-07-26T03:27:35.601Z,959.46
2018-07-26T03:28:35.546Z,959.31
2018-07-26T03:29:35.590Z,959.54
2018-07-26T03:30:35.598Z,959.72
2018-07-26T03:31:35.566Z,959.51
2018-07-26T03:32:35.652Z,959.41
2018-07-26T03:33:35.593Z,959.22
2018-07-26T03:34:35.612Z,959.84
2018-07-26T03:35:35.572Z,959.73
2018-07-26T03:36:35.574Z,959.64
2018-07-26T03:37:35.578Z,959.53
2018-07-26T03:38:35.651Z,959.77
2018-07-26T03:39:35.634Z,959.66
2018-07-26T03:40:35.601Z,959.76
2018-07-26T03:41:35.624Z,959.91
2018-07-26T03:42:35.613Z,960.42
2018-07-26T03:43:35.686Z,959.93
2018-07-26T03:44:35.630Z,959.61
2018-07-26T03:45:35.636Z,959.5
2018-07-26T03:46:35.617Z,959.92
2018-07-26T03:47:35.632Z,959.68
2018-07-26T03:48:35.642Z,959.75
2018-07-26T03:49:35.653Z,960.13
2018-07-26T03:50:35.638Z,960.01
2018-07-26T03:51:35.698Z,959.99
2018-07-26T03:52:35.670Z,960.11
2018-07-26T03:54:56.121Z,960.2
2018-07-26T03:55:55.857Z,960.09
2018-07-26T03:56:55.805Z,960.09
2018-07-26T03:57:55.834Z,960.3
2018-07-26T03:58:55.812Z,960.08
2018-07-26T03:59:55.868Z,960.53
2018-07-26T04:00:55.812Z,960.03
2018-07-26T04:01:55.806Z,960.2
2018-07-26T04:02:55.816Z,960.11
2018-07-26T04:03:55.839Z,960.45
2018-07-26T04:04:55.862Z,960.55
2018-07-26T04:05:55.837Z,960.36
2018-07-26T04:06:55.859Z,960.56
2018-07-26T04:07:55.865Z,960.57
2018-07-26T04:08:55.866Z,960.55
2018-07-26T04:09:55.825Z,960.6
2018-07-26T04:10:55.841Z,960.6
2018-07-26T04:11:55.854Z,960.71
2018-07-26T04:12:55.824Z,960.59
2018-07-26T04:13:55.900Z,960.71
2018-07-26T04:14:55.838Z,960.61
2018-07-26T04:15:55.845Z,960.63
2018-07-26T04:16:55.867Z,960.7
2018-07-26T04:17:55.858Z,961.05
2018-07-26T04:18:55.837Z,960.95
2018-07-26T04:19:55.856Z,960.63
2018-07-26T04:20:55.997Z,960.72
2018-07-26T04:21:55.867Z,960.83
2018-07-26T04:22:55.829Z,961.34
2018-07-26T04:23:55.853Z,960.75
2018-07-26T04:24:55.853Z,960.95
2018-07-26T04:25:55.910Z,961
2018-07-26T04:26:55.879Z,961.2
2018-07-26T04:27:55.874Z,960.68
2018-07-26T04:28:55.889Z,960.91
2018-07-26T04:29:55.904Z,961.09
2018-07-26T04:30:55.854Z,961.1
2018-07-26T04:31:55.910Z,960.92
2018-07-26T04:32:55.894Z,961.04
2018-07-26T04:33:55.896Z,961.24
2018-07-26T04:34:55.921Z,961.38
2018-07-26T04:35:55.878Z,961.07
2018-07-26T04:36:55.870Z,961.21
2018-07-26T04:37:55.880Z,961.57
2018-07-26T04:38:55.881Z,961.31
2018-07-26T04:39:55.886Z,961.37
2018-07-26T04:40:55.895Z,961.19
2018-07-26T04:41:55.926Z,961.9
2018-07-26T04:42:55.920Z,961.33
2018-07-26T04:43:55.876Z,961.24
2018-07-26T04:44:55.904Z,961.7
2018-07-26T04:45:55.895Z,961.5
2018-07-26T04:46:55.916Z,961.73
2018-07-26T04:47:55.924Z,961.5
2018-07-26T04:48:55.977Z,961.5
2018-07-26T04:49:55.887Z,961.66
2018-07-26T04:50:55.921Z,961.65
2018-07-26T04:51:55.947Z,961.64
2018-07-26T04:52:55.948Z,961.78
2018-07-26T04:53:55.919Z,961.58
2018-07-26T04:54:56.020Z,961.87
2018-07-26T04:55:55.915Z,961.88
2018-07-26T04:56:55.936Z,961.79
2018-07-26T04:57:55.956Z,961.79
2018-07-26T04:58:55.941Z,961.66
2018-07-26T04:59:55.943Z,961.59
2018-07-26T05:00:55.912Z,962.32
2018-07-26T05:01:55.979Z,961.93
2018-07-26T05:02:55.963Z,961.82
2018-07-26T05:03:55.948Z,961.85
2018-07-26T05:04:55.955Z,962.11
2018-07-26T05:05:55.960Z,962
2018-07-26T05:06:55.967Z,962.33
2018-07-26T05:07:55.956Z,962.38
2018-07-26T05:08:55.974Z,961.93
2018-07-26T05:09:55.972Z,962.37
2018-07-26T05:10:55.948Z,961.97
2018-07-26T05:11:55.936Z,961.78
2018-07-26T05:12:56.023Z,962.02
2018-07-26T05:13:55.987Z,962.01
2018-07-26T05:14:55.964Z,962
2018-07-26T05:15:55.989Z,961.91
2018-07-26T05:16:55.993Z,962.1
2018-07-26T05:17:55.985Z,961.82
2018-07-26T05:18:56.042Z,961.72
2018-07-26T05:19:56.014Z,962.34
2018-07-26T05:20:55.973Z,962.3
2018-07-26T05:21:56.027Z,962.06
2018-07-26T05:22:55.988Z,961.73
2018-07-26T05:23:55.982Z,961.93
2018-07-26T05:24:55.977Z,961.93
2018-07-26T05:25:56.025Z,961.64
2018-07-26T05:26:56.021Z,961.85
2018-07-26T05:27:56.077Z,961.94
2018-07-26T05:28:55.979Z,961.82
2018-07-26T05:29:56.012Z,961.72
2018-07-26T05:30:55.979Z,961.64
2018-07-26T05:31:55.957Z,961.72
2018-07-26T05:32:56.019Z,961.96
2018-07-26T05:33:55.973Z,961.84
2018-07-26T05:34:55.980Z,961.9
2018-07-26T05:35:56.012Z,961.53
2018-07-26T05:36:56.043Z,961.63
2018-07-26T05:37:56.085Z,961.35
2018-07-26T05:38:56.037Z,962.14
2018-07-26T05:39:56.050Z,961.68
2018-07-26T05:40:56.003Z,961.69
2018-07-26T05:41:56.018Z,961.29
2018-07-26T05:42:56.045Z,961.8
2018-07-26T05:43:56.023Z,961.31
2018-07-26T05:44:56.047Z,961.53
2018-07-26T05:49:26.929Z,961.53
2018-07-26T05:50:26.896Z,961.33
2018-07-26T05:51:26.895Z,961.62
2018-07-26T05:52:26.941Z,961.52
2018-07-26T05:53:26.991Z,961.61
2018-07-26T05:54:26.966Z,961.41
2018-07-26T05:55:26.887Z,961.51
2018-07-26T05:56:26.917Z,961.01
2018-07-26T05:57:26.987Z,961.28
2018-07-26T05:58:26.910Z,961.42
2018-07-26T05:59:26.924Z,961.21
2018-07-26T06:00:26.885Z,961.31
2018-07-26T06:01:26.889Z,961.34
2018-07-26T06:02:26.940Z,961.33
2018-07-26T06:03:26.884Z,961.44
2018-07-26T06:04:26.897Z,961.52
2018-07-26T06:05:26.959Z,961.12
2018-07-26T06:06:26.912Z,961.23
2018-07-26T06:07:26.935Z,961.42
2018-07-26T06:08:26.942Z,960.98
2018-07-26T06:09:26.918Z,960.88
2018-07-26T06:10:26.957Z,961.29
2018-07-26T06:11:26.905Z,960.99
2018-07-26T06:12:26.946Z,961.18
2018-07-26T06:13:26.931Z,961
2018-07-26T06:14:26.939Z,960.95
2018-07-26T06:15:26.945Z,961.09
2018-07-26T06:16:26.711Z,960.9
2018-07-26T06:17:26.728Z,961.05
2018-07-26T06:18:27.296Z,960.76
2018-07-26T06:19:26.722Z,961.05
2018-07-26T06:20:26.762Z,961.39
2018-07-26T06:21:26.780Z,960.91
2018-07-26T06:22:28.810Z,961.19
2018-07-26T06:23:26.699Z,960.71
2018-07-26T06:24:26.795Z,960.79
2018-07-26T06:25:26.737Z,960.89
2018-07-26T06:26:26.755Z,960.85
2018-07-26T06:27:26.714Z,960.79
2018-07-26T06:28:26.744Z,960.72
2018-07-26T06:29:26.739Z,960.73
2018-07-26T06:30:26.790Z,960.54
2018-07-26T06:31:26.753Z,960.55
2018-07-26T06:32:26.724Z,960.76
2018-07-26T06:33:26.851Z,960.58
2018-07-26T06:34:26.726Z,960.56
2018-07-26T06:35:26.779Z,960.61
2018-07-26T06:36:26.761Z,960.5
2018-07-26T06:37:26.800Z,960.39
2018-07-26T06:38:26.747Z,960.27
2018-07-26T06:39:26.876Z,960.2
2018-07-26T06:40:26.846Z,959.98
2018-07-26T06:41:26.785Z,960.28
2018-07-26T06:42:26.814Z,960.06
2018-07-26T06:43:26.772Z,960.29
2018-07-26T06:44:26.781Z,960.08
2018-07-26T06:45:26.765Z,960.59
2018-07-26T06:46:27.048Z,960.17
2018-07-26T06:47:26.989Z,959.99
2018-07-26T06:48:27.019Z,960.19
2018-07-26T06:49:26.969Z,959.99
2018-07-26T06:50:27.008Z,960.3
2018-07-26T06:51:27.010Z,960.1
2018-07-26T06:52:27.048Z,960.18
2018-07-26T06:53:26.994Z,960.27
2018-07-26T06:54:27.060Z,959.99
2018-07-26T06:55:27.014Z,959.7
2018-07-26T06:56:27.137Z,959.99
2018-07-26T06:57:27.013Z,960.09
2018-07-26T06:58:27.008Z,960
2018-07-26T06:59:27.034Z,959.72
2018-07-26T07:00:27.031Z,960.03
2018-07-26T07:01:27.013Z,959.91
2018-07-26T07:02:27.069Z,960
2018-07-26T07:03:27.708Z,960
2018-07-26T07:04:27.111Z,960.01
2018-07-26T07:05:27.111Z,959.87
2018-07-26T07:06:27.023Z,960
2018-07-26T07:07:27.044Z,959.9
2018-07-26T07:08:27.036Z,959.82
2018-07-26T07:09:27.091Z,959.93
2018-07-26T07:10:27.138Z,959.49
2018-07-26T07:11:27.076Z,960.01
2018-07-26T07:12:27.110Z,960.01
2018-07-26T07:13:27.034Z,959.62
2018-07-26T07:14:27.076Z,959.84
2018-07-26T07:15:27.054Z,960.04
2018-07-26T07:16:27.063Z,959.75
2018-07-26T07:17:27.081Z,959.87
2018-07-26T07:18:27.073Z,959.65
2018-07-26T07:19:27.109Z,959.84
2018-07-26T07:20:27.099Z,959.93
2018-07-26T07:21:27.071Z,959.42
2018-07-26T07:22:27.115Z,959.72
2018-07-26T07:23:27.102Z,959.6
2018-07-26T07:24:27.096Z,959.62
2018-07-26T07:25:27.044Z,959.81
2018-07-26T07:26:27.047Z,959.72
2018-07-26T07:27:27.093Z,959.39
2018-07-26T07:28:27.154Z,959.81
2018-07-26T07:29:27.052Z,959.72
2018-07-26T07:30:27.103Z,959.78
2018-07-26T07:31:27.058Z,959.91
2018-07-26T07:32:27.091Z,959.4
2018-07-26T07:33:27.132Z,959.57
2018-07-26T07:34:27.130Z,959.78
2018-07-26T07:35:27.117Z,959.44
2018-07-26T07:36:27.084Z,959.74
2018-07-26T07:37:27.078Z,959.69
2018-07-26T07:38:27.119Z,959.76
2018-07-26T07:39:27.084Z,959.57
2018-07-26T07:40:27.073Z,959.56
2018-07-26T07:41:27.114Z,959.56
2018-07-26T07:42:27.075Z,959.71
2018-07-26T07:43:27.219Z,959.31
2018-07-26T07:44:27.122Z,959.31
2018-07-26T07:45:27.162Z,959.53
2018-07-26T07:46:27.198Z,959.29
2018-07-26T07:47:27.147Z,959.52
2018-07-26T07:48:27.160Z,959.01
2018-07-26T07:49:27.129Z,959.22
2018-07-26T07:50:27.207Z,959.49
2018-07-26T07:51:27.161Z,959.3
2018-07-26T07:52:27.225Z,959.32
2018-07-26T07:53:27.173Z,959.17
2018-07-26T07:54:27.146Z,959.14
2018-07-26T07:55:27.189Z,959.09
2018-07-26T07:56:27.181Z,959.29
2018-07-26T07:57:27.150Z,959.18
2018-07-26T07:58:27.257Z,959
2018-07-26T07:59:27.157Z,958.97
2018-07-26T08:00:27.171Z,958.74
2018-07-26T08:01:27.175Z,958.82
2018-07-26T08:02:27.187Z,958.91
2018-07-26T08:03:27.177Z,958.79
2018-07-26T08:04:27.200Z,958.81
2018-07-26T08:05:27.195Z,958.55
2018-07-26T08:06:27.180Z,958.58
2018-07-26T08:07:27.207Z,958.48
2018-07-26T08:08:27.249Z,958.39
2018-07-26T08:09:27.175Z,958.36
2018-07-26T08:10:27.224Z,958.66
2018-07-26T08:11:27.204Z,958.35
2018-07-26T08:12:27.199Z,958.48
2018-07-26T08:13:27.268Z,958.46
2018-07-26T08:14:27.254Z,958.16
2018-07-26T08:15:27.253Z,958.26
2018-07-26T08:16:27.202Z,958.25
2018-07-26T08:17:27.170Z,958.11
2018-07-26T08:18:27.280Z,958.01
2018-07-26T08:19:27.205Z,957.89
2018-07-26T08:20:27.210Z,957.96
2018-07-26T08:21:27.344Z,957.67
2018-07-26T08:22:27.272Z,957.76
2018-07-26T08:23:27.264Z,958.05
2018-07-26T08:24:27.212Z,957.86
2018-07-26T08:25:27.241Z,957.58
2018-07-26T08:26:27.227Z,957.53
2018-07-26T08:29:34.032Z,957.5
2018-07-26T08:29:47.401Z,957.73
2018-07-26T08:30:47.435Z,957.32
2018-07-26T08:31:47.392Z,957.13
2018-07-26T08:32:47.370Z,957.58
2018-07-26T08:33:47.343Z,957.27
2018-07-26T08:34:47.368Z,957.45
2018-07-26T08:35:47.376Z,957.29
2018-07-26T08:36:47.421Z,957.23
2018-07-26T08:37:47.411Z,957.26
2018-07-26T08:38:47.485Z,957.41
2018-07-26T08:39:47.442Z,957.4
2018-07-26T08:40:47.757Z,957.36
2018-07-26T08:41:47.453Z,957.3
2018-07-26T08:42:47.403Z,957.07
2018-07-26T08:43:47.469Z,957.3
2018-07-26T08:44:47.486Z,956.89
2018-07-26T08:45:47.431Z,957.16
2018-07-26T08:46:47.386Z,957.27
2018-07-26T08:47:47.436Z,957.29
2018-07-26T08:48:47.543Z,957.21
2018-07-26T08:49:47.409Z,957.31
2018-07-26T08:50:47.465Z,957.29
2018-07-26T08:51:47.416Z,956.84
2018-07-26T08:52:47.447Z,957.3
2018-07-26T08:53:47.440Z,956.92
2018-07-26T08:54:47.419Z,957.03
2018-07-26T08:55:47.445Z,956.91
2018-07-26T08:56:47.416Z,957.05
2018-07-26T08:57:47.456Z,957.05
2018-07-26T08:58:47.470Z,956.93
2018-07-26T08:59:47.475Z,956.93
2018-07-26T09:00:47.417Z,956.74
2018-07-26T09:01:47.458Z,956.94
2018-07-26T09:02:47.497Z,956.65
2018-07-26T09:03:47.495Z,956.53
2018-07-26T09:04:47.510Z,956.9
2018-07-26T09:05:47.508Z,956.63
2018-07-26T09:06:47.429Z,956.61
2018-07-26T09:07:47.482Z,956.65
2018-07-26T09:08:47.485Z,956.52
2018-07-26T09:09:47.464Z,956.54
2018-07-26T09:10:47.443Z,956.43
2018-07-26T09:11:47.417Z,956.67
2018-07-26T09:12:47.498Z,956.35
2018-07-26T09:18:05.667Z,956.9
2018-07-26T09:18:18.717Z,956.65
2018-07-26T09:19:18.664Z,956.86
2018-07-26T09:20:18.665Z,956.46
2018-07-26T09:21:18.671Z,956.56
2018-07-26T09:22:18.653Z,956.56
2018-07-26T09:23:19.053Z,956.16
2018-07-26T09:24:18.743Z,956.27
2018-07-26T09:25:18.685Z,956.43
2018-07-26T09:26:18.721Z,955.9
2018-07-26T09:27:18.655Z,956.67
2018-07-26T09:28:18.717Z,956.09
2018-07-26T09:29:18.714Z,956.46
2018-07-26T09:30:18.688Z,956.35
2018-07-26T09:31:18.721Z,956.47
2018-07-26T09:32:18.662Z,956.38
2018-07-26T09:33:18.801Z,956.27
2018-07-26T09:34:18.679Z,956.15
2018-07-26T09:35:18.729Z,956.02
2018-07-26T09:36:18.752Z,956.33
2018-07-26T09:37:18.698Z,955.99
2018-07-26T09:38:18.681Z,955.88
2018-07-26T09:42:49.658Z,955.91
2018-07-26T09:43:49.618Z,956.03
2018-07-26T09:45:24.339Z,955.79
2018-07-26T09:45:49.608Z,955.92
2018-07-26T09:46:49.616Z,956.04
2018-07-26T09:47:49.621Z,955.83
2018-07-26T09:48:49.646Z,956.46
2018-07-26T09:49:49.586Z,955.8
2018-07-26T09:50:49.654Z,955.89
2018-07-26T09:51:49.619Z,955.77
2018-07-26T09:52:49.636Z,955.89
2018-07-26T09:53:49.599Z,955.58
2018-07-26T09:59:07.413Z,955.83
2018-07-26T09:59:22.974Z,956.01
2018-07-26T10:00:23.017Z,955.3
2018-07-26T10:01:22.992Z,955.77
2018-07-26T10:02:22.996Z,955.57
2018-07-26T10:03:22.940Z,955.59
2018-07-26T10:04:22.963Z,955.42
2018-07-26T10:05:22.972Z,955.57
2018-07-26T10:06:22.979Z,955.36
2018-07-26T10:07:22.961Z,955.63
2018-07-26T10:08:22.929Z,955.42
2018-07-26T10:09:23.015Z,955.29
2018-07-26T10:10:22.942Z,955.26
2018-07-26T10:11:23.057Z,955.11
2018-07-26T10:12:22.967Z,955.09
2018-07-26T10:13:22.961Z,955.48
2018-07-26T10:14:22.984Z,955.21
2018-07-26T10:15:22.948Z,955.32
2018-07-26T10:16:23.025Z,955.38
2018-07-26T10:17:22.990Z,955.27
2018-07-26T10:18:22.957Z,954.93
2018-07-26T10:19:23.004Z,955.5
2018-07-26T10:20:23.013Z,955.07
2018-07-26T10:21:23.045Z,954.85
2018-07-26T10:22:23.035Z,954.66
2018-07-26T10:23:22.988Z,955.16
2018-07-26T10:24:22.986Z,954.93
2018-07-26T10:25:23.019Z,955
2018-07-26T10:26:23.026Z,955.15
2018-07-26T10:27:23.009Z,954.92
2018-07-26T10:28:22.985Z,954.91
2018-07-26T10:29:22.973Z,954.89
2018-07-26T10:30:23.009Z,954.5
2018-07-26T10:31:24.461Z,954.87
2018-07-26T10:32:23.028Z,954.78
2018-07-26T10:33:23.059Z,954.88
2018-07-26T10:34:22.984Z,954.34
2018-07-26T10:35:22.990Z,954.53
2018-07-26T10:36:23.050Z,954.65
2018-07-26T10:37:22.974Z,954.56
2018-07-26T10:38:23.049Z,954.68
2018-07-26T10:39:23.110Z,954.23
2018-07-26T10:40:23.015Z,954.23
2018-07-26T10:41:22.998Z,954.62
2018-07-26T10:42:23.008Z,954.3
2018-07-26T10:43:23.065Z,954.59
2018-07-26T10:44:23.081Z,954.8
2018-07-26T10:45:23.040Z,954.44
2018-07-26T10:46:25.412Z,954.26
2018-07-26T10:47:23.006Z,954.52
2018-07-26T10:48:23.058Z,954.48
2018-07-26T10:49:23.044Z,954.85
2018-07-26T10:50:23.053Z,954.53
2018-07-26T10:51:23.081Z,954.59
2018-07-26T10:52:23.037Z,954.64
2018-07-26T10:53:23.055Z,954.64
2018-07-26T10:54:23.061Z,954.57
2018-07-26T10:55:23.072Z,954.38
2018-07-26T10:56:23.038Z,954.26
2018-07-26T10:57:23.055Z,954.4
2018-07-26T10:58:23.048Z,954.5
2018-07-26T10:59:23.061Z,954.21
2018-07-26T11:00:23.168Z,954.02
2018-07-26T11:01:23.069Z,954.1
2018-07-26T11:02:23.076Z,954.18
2018-07-26T11:03:23.060Z,954.34
2018-07-26T11:04:23.068Z,954.65
2018-07-26T11:05:23.102Z,954.25
2018-07-26T11:06:23.075Z,954.21
2018-07-26T11:07:23.057Z,953.88
2018-07-26T11:08:23.091Z,954.35
2018-07-26T11:09:23.058Z,953.99
2018-07-26T11:10:23.086Z,954.06
2018-07-26T11:11:23.072Z,954.16
2018-07-26T11:12:23.106Z,953.95
2018-07-26T11:13:23.084Z,954.16
2018-07-26T11:14:23.158Z,953.8
2018-07-26T11:15:23.097Z,953.7
2018-07-26T11:16:23.067Z,953.8
2018-07-26T11:17:23.089Z,953.81
2018-07-26T11:18:23.089Z,954.1
2018-07-26T11:19:23.098Z,953.89
2018-07-26T11:20:23.110Z,954.17
2018-07-26T11:21:23.081Z,954.15
2018-07-26T11:22:23.092Z,953.91
2018-07-26T11:23:23.132Z,953.65
2018-07-26T11:24:23.136Z,953.89
2018-07-26T11:25:23.125Z,953.81
2018-07-26T11:26:23.150Z,953.69
2018-07-26T11:27:23.112Z,953.55
2018-07-26T11:28:23.110Z,953.58
2018-07-26T11:29:23.149Z,953.98
2018-07-26T11:30:23.107Z,953.71
2018-07-26T11:31:23.168Z,953.76
2018-07-26T11:32:23.111Z,953.7
2018-07-26T11:33:23.128Z,953.47
2018-07-26T11:34:23.163Z,953.54
2018-07-26T11:35:23.122Z,953.43
2018-07-26T11:36:23.147Z,953.46
2018-07-26T11:37:23.111Z,953.65
2018-07-26T11:38:23.147Z,953.41
2018-07-26T11:39:23.149Z,953.29
2018-07-26T11:40:23.172Z,953.64
2018-07-26T11:41:23.162Z,953.4
2018-07-26T11:42:23.156Z,953.36
2018-07-26T11:43:23.185Z,953.26
2018-07-26T11:44:23.147Z,952.84
2018-07-26T11:45:23.113Z,953.03
2018-07-26T11:46:23.144Z,953.17
2018-07-26T11:47:23.140Z,953.27
2018-07-26T11:48:23.120Z,953.2
2018-07-26T11:49:23.175Z,953.36
2018-07-26T11:50:23.196Z,952.98
2018-07-26T11:51:23.264Z,953.08
2018-07-26T11:52:23.254Z,953.06
2018-07-26T11:53:23.176Z,953.01
2018-07-26T11:54:23.187Z,953.24
2018-07-26T11:55:23.230Z,953.18
2018-07-26T11:56:23.142Z,952.87
2018-07-26T11:57:23.191Z,953.2
2018-07-26T11:58:23.180Z,952.93
2018-07-26T11:59:23.176Z,953.11
2018-07-26T12:00:23.222Z,952.7
2018-07-26T12:01:23.158Z,953
2018-07-26T12:02:23.164Z,953.01
2018-07-26T12:03:23.211Z,952.65
2018-07-26T12:04:23.172Z,952.64
2018-07-26T12:05:23.220Z,952.57
2018-07-26T12:06:23.199Z,952.72
2018-07-26T12:07:23.195Z,952.74
2018-07-26T12:08:23.201Z,953.03
2018-07-26T12:09:23.203Z,952.7
2018-07-26T12:10:26.779Z,952.64
2018-07-26T12:11:23.179Z,952.54
2018-07-26T12:12:23.200Z,952.41
2018-07-26T12:13:23.184Z,952.56
2018-07-26T12:14:23.256Z,952.65
2018-07-26T12:15:23.206Z,952.43
2018-07-26T12:16:23.160Z,952.46
2018-07-26T12:17:23.197Z,952.2
2018-07-26T12:18:23.214Z,952.3
2018-07-26T12:19:23.233Z,952.45
2018-07-26T12:20:23.221Z,952.16
2018-07-26T12:21:23.231Z,952.33
2018-07-26T12:22:23.593Z,952.11
2018-07-26T12:23:23.268Z,952.34
2018-07-26T12:24:23.259Z,952.33
2018-07-26T12:25:23.249Z,952.2
2018-07-26T12:26:23.233Z,952.32
2018-07-26T12:27:23.221Z,952.51
2018-07-26T12:28:23.238Z,951.85
2018-07-26T12:30:43.494Z,952.36
2018-07-26T12:31:43.471Z,951.81
2018-07-26T12:32:43.440Z,952.12
2018-07-26T12:33:43.470Z,952.24
2018-07-26T12:34:43.450Z,951.93
2018-07-26T12:35:43.493Z,951.98
2018-07-26T12:36:43.490Z,952.1
2018-07-26T12:37:43.558Z,952.1
2018-07-26T12:38:43.472Z,951.84
2018-07-26T12:39:43.448Z,951.75
2018-07-26T12:40:43.456Z,951.84
2018-07-26T12:41:43.455Z,951.84
2018-07-26T12:42:43.471Z,951.59
2018-07-26T12:43:43.528Z,951.99
2018-07-26T12:44:43.520Z,951.84
2018-07-26T12:45:43.495Z,951.74
2018-07-26T12:46:43.514Z,951.85
2018-07-26T12:47:43.522Z,951.86
2018-07-26T12:48:43.466Z,951.79
2018-07-26T12:49:43.523Z,951.51
2018-07-26T12:50:43.796Z,951.32
2018-07-26T12:51:43.481Z,951.8
2018-07-26T12:52:43.519Z,951.74
2018-07-26T12:53:43.511Z,951.4
2018-07-26T12:54:43.536Z,951.62
2018-07-26T12:55:43.565Z,951.62
2018-07-26T12:56:43.513Z,951.18
2018-07-26T12:57:43.496Z,951.34